createdAt,value
2023-05-05T00:00:28.765Z, 37.66
2023-05-05T00:01:28.813Z, 37.67
2023-05-05T00:02:28.885Z, 37.62
2023-05-05T00:03:28.820Z, 37.65
2023-05-05T00:04:28.790Z, 37.67
2023-05-05T00:05:28.835Z, 37.68
2023-05-05T00:06:28.830Z, 37.63
2023-05-05T00:07:28.904Z, 37.61
2023-05-05T00:08:28.940Z, 37.60
2023-05-05T00:09:28.930Z, 37.57
2023-05-05T00:10:28.881Z, 37.58
2023-05-05T00:11:28.896Z, 37.60
2023-05-05T00:12:28.896Z, 37.57
2023-05-05T00:13:28.899Z, 37.57
2023-05-05T00:14:29.002Z, 37.58
2023-05-05T00:15:28.954Z, 37.57
2023-05-05T00:16:29.041Z, 37.58
2023-05-05T00:17:29.020Z, 37.55
2023-05-05T00:18:29.046Z, 37.53
2023-05-05T00:19:29.041Z, 37.55
2023-05-05T00:20:29.028Z, 37.57
2023-05-05T00:21:29.035Z, 37.57
2023-05-05T00:22:29.041Z, 37.53
2023-05-05T00:23:29.078Z, 37.56
2023-05-05T00:24:29.060Z, 37.58
2023-05-05T00:25:29.134Z, 37.54
2023-05-05T00:26:29.104Z, 37.53
2023-05-05T00:27:29.127Z, 37.51
2023-05-05T00:28:29.107Z, 37.47
2023-05-05T00:29:29.145Z, 37.46
2023-05-05T00:30:29.134Z, 37.44
2023-05-05T00:31:29.171Z, 37.44
2023-05-05T00:32:29.214Z, 37.48
2023-05-05T00:33:29.171Z, 37.44
2023-05-05T00:34:29.166Z, 37.46
2023-05-05T00:35:29.173Z, 37.46
2023-05-05T00:36:29.267Z, 37.44
2023-05-05T00:37:29.222Z, 37.40
2023-05-05T00:38:29.228Z, 37.42
2023-05-05T00:39:29.317Z, 37.44
2023-05-05T00:40:29.292Z, 37.41
2023-05-05T00:41:29.302Z, 37.41
2023-05-05T00:42:29.284Z, 37.36
2023-05-05T00:43:29.359Z, 37.33
2023-05-05T00:44:29.321Z, 37.33
2023-05-05T00:45:29.377Z, 37.38
2023-05-05T00:46:29.385Z, 37.37
2023-05-05T00:47:29.369Z, 37.35
2023-05-05T00:48:29.348Z, 37.33
2023-05-05T00:49:29.421Z, 37.34
2023-05-05T00:50:29.477Z, 37.31
2023-05-05T00:51:29.396Z, 37.29
2023-05-05T00:52:29.448Z, 37.31
2023-05-05T00:53:29.422Z, 37.33
2023-05-05T00:54:29.422Z, 37.28
2023-05-05T00:55:29.498Z, 37.26
2023-05-05T00:56:29.444Z, 37.23
2023-05-05T00:57:29.518Z, 37.23
2023-05-05T00:58:29.492Z, 37.23
2023-05-05T00:59:29.497Z, 37.21
2023-05-05T01:00:29.487Z, 37.21
2023-05-05T01:01:29.575Z, 37.19
2023-05-05T01:02:29.645Z, 37.21
2023-05-05T01:03:29.647Z, 37.16
2023-05-05T01:04:29.534Z, 37.13
2023-05-05T01:05:29.548Z, 37.15
2023-05-05T01:06:29.568Z, 37.15
2023-05-05T01:07:29.573Z, 37.15
2023-05-05T01:08:29.589Z, 37.11
2023-05-05T01:09:29.579Z, 37.11
2023-05-05T01:10:29.613Z, 37.08
2023-05-05T01:11:29.618Z, 37.05
2023-05-05T01:12:29.787Z, 37.06
2023-05-05T01:13:29.690Z, 37.08
2023-05-05T01:14:29.709Z, 37.08
2023-05-05T01:15:29.720Z, 37.06
2023-05-05T01:16:29.755Z, 37.04
2023-05-05T01:17:29.755Z, 37.05
2023-05-05T01:18:29.724Z, 37.07
2023-05-05T01:19:29.800Z, 37.04
2023-05-05T01:20:29.774Z, 37.04
2023-05-05T01:21:29.774Z, 37.02
2023-05-05T01:22:29.767Z, 37.02
2023-05-05T01:23:29.778Z, 37.00
2023-05-05T01:24:29.798Z, 36.99
2023-05-05T01:25:29.840Z, 36.96
2023-05-05T01:26:29.822Z, 36.93
2023-05-05T01:27:29.816Z, 36.95
2023-05-05T01:28:29.864Z, 36.93
2023-05-05T01:29:29.845Z, 36.87
2023-05-05T01:30:29.848Z, 36.89
2023-05-05T01:31:29.941Z, 36.86
2023-05-05T01:32:29.996Z, 36.84
2023-05-05T01:33:29.895Z, 36.87
2023-05-05T01:34:29.928Z, 36.85
2023-05-05T01:35:29.935Z, 36.85
2023-05-05T01:36:30.026Z, 36.89
2023-05-05T01:37:29.993Z, 36.90
2023-05-05T01:38:30.041Z, 36.89
2023-05-05T01:39:30.004Z, 36.88
2023-05-05T01:40:30.079Z, 36.85
2023-05-05T01:41:30.076Z, 36.85
2023-05-05T01:42:30.064Z, 36.86
2023-05-05T01:43:30.081Z, 36.80
2023-05-05T01:44:30.060Z, 36.83
2023-05-05T01:45:30.076Z, 36.79
2023-05-05T01:46:30.065Z, 36.77
2023-05-05T01:47:30.122Z, 36.78
2023-05-05T01:48:30.090Z, 36.75
2023-05-05T01:49:30.170Z, 36.74
2023-05-05T01:50:30.138Z, 36.74
2023-05-05T01:51:30.193Z, 36.73
2023-05-05T01:52:30.162Z, 36.71
2023-05-05T01:53:30.166Z, 36.77
2023-05-05T01:54:30.160Z, 36.75
2023-05-05T01:55:30.235Z, 36.75
2023-05-05T01:56:30.210Z, 36.75
2023-05-05T01:57:30.267Z, 36.75
2023-05-05T01:58:30.283Z, 36.75
2023-05-05T01:59:30.238Z, 36.75
2023-05-05T02:00:30.275Z, 36.74
2023-05-05T02:01:30.269Z, 36.72
2023-05-05T02:02:30.372Z, 36.72
2023-05-05T02:03:30.285Z, 36.73
2023-05-05T02:04:30.306Z, 36.68
2023-05-05T02:05:30.302Z, 36.69
2023-05-05T02:06:30.312Z, 36.66
2023-05-05T02:07:30.382Z, 36.59
2023-05-05T02:08:30.369Z, 36.60
2023-05-05T02:09:30.432Z, 36.61
2023-05-05T02:10:30.446Z, 36.62
2023-05-05T02:11:30.436Z, 36.59
2023-05-05T02:12:30.437Z, 36.59
2023-05-05T02:13:30.441Z, 36.60
2023-05-05T02:14:30.413Z, 36.56
2023-05-05T02:15:30.421Z, 36.53
2023-05-05T02:16:30.413Z, 36.54
2023-05-05T02:17:30.502Z, 36.52
2023-05-05T02:18:30.445Z, 36.55
2023-05-05T02:19:30.475Z, 36.53
2023-05-05T02:20:30.557Z, 36.53
2023-05-05T02:21:30.540Z, 36.50
2023-05-05T02:22:30.532Z, 36.48
2023-05-05T02:23:30.533Z, 36.48
2023-05-05T02:24:30.600Z, 36.48
2023-05-05T02:25:30.588Z, 36.45
2023-05-05T02:26:30.586Z, 36.45
2023-05-05T02:27:30.576Z, 36.45
2023-05-05T02:28:30.585Z, 36.47
2023-05-05T02:29:30.690Z, 36.45
2023-05-05T02:30:30.670Z, 36.44
2023-05-05T02:31:30.759Z, 36.42
2023-05-05T02:32:30.713Z, 36.42
2023-05-05T02:33:30.724Z, 36.43
2023-05-05T02:34:30.714Z, 36.42
2023-05-05T02:35:30.717Z, 36.40
2023-05-05T02:36:30.708Z, 36.44
2023-05-05T02:37:30.764Z, 36.41
2023-05-05T02:38:30.755Z, 36.37
2023-05-05T02:39:30.775Z, 36.37
2023-05-05T02:40:30.757Z, 36.35
2023-05-05T02:41:30.770Z, 36.35
2023-05-05T02:42:30.766Z, 36.36
2023-05-05T02:43:30.746Z, 36.36
2023-05-05T02:44:30.849Z, 36.30
2023-05-05T02:45:30.826Z, 36.26
2023-05-05T02:46:30.861Z, 36.25
2023-05-05T02:47:30.846Z, 36.26
2023-05-05T02:48:30.895Z, 36.23
2023-05-05T02:49:30.863Z, 36.24
2023-05-05T02:50:30.920Z, 36.20
2023-05-05T02:51:30.902Z, 36.21
2023-05-05T02:52:30.928Z, 36.20
2023-05-05T02:53:30.901Z, 36.21
2023-05-05T02:54:30.927Z, 36.20
2023-05-05T02:55:30.922Z, 36.17
2023-05-05T02:56:31.005Z, 36.17
2023-05-05T02:57:31.008Z, 36.19
2023-05-05T02:58:31.041Z, 36.17
2023-05-05T02:59:31.013Z, 36.15
2023-05-05T03:00:31.015Z, 36.15
2023-05-05T03:01:31.048Z, 36.16
2023-05-05T03:02:31.191Z, 36.17
2023-05-05T03:03:31.079Z, 36.19
2023-05-05T03:04:31.026Z, 36.22
2023-05-05T03:05:31.091Z, 36.22
2023-05-05T03:06:31.071Z, 36.20
2023-05-05T03:07:31.141Z, 36.16
2023-05-05T03:08:31.140Z, 36.13
2023-05-05T03:09:31.159Z, 36.12
2023-05-05T03:10:31.166Z, 36.10
2023-05-05T03:11:31.121Z, 36.10
2023-05-05T03:12:31.186Z, 36.06
2023-05-05T03:13:31.118Z, 36.01
2023-05-05T03:14:32.795Z, 36.05
2023-05-05T03:15:31.189Z, 36.08
2023-05-05T03:16:31.222Z, 36.07
2023-05-05T03:17:31.202Z, 36.03
2023-05-05T03:18:31.182Z, 36.06
2023-05-05T03:19:31.245Z, 36.05
2023-05-05T03:20:31.244Z, 36.01
2023-05-05T03:21:31.266Z, 36.01
2023-05-05T03:22:31.244Z, 36.00
2023-05-05T03:23:31.250Z, 35.97
2023-05-05T03:24:31.265Z, 35.98
2023-05-05T03:25:31.296Z, 35.99
2023-05-05T03:26:31.360Z, 35.98
2023-05-05T03:27:31.341Z, 35.97
2023-05-05T03:28:31.380Z, 35.97
2023-05-05T03:29:31.358Z, 35.96
2023-05-05T03:30:31.357Z, 35.96
2023-05-05T03:31:31.385Z, 36.49
2023-05-05T03:32:31.414Z, 38.29
2023-05-05T03:33:31.438Z, 41.88
2023-05-05T03:34:31.426Z, 44.54
2023-05-05T03:35:31.452Z, 46.29
2023-05-05T03:36:31.441Z, 47.56
2023-05-05T03:37:31.485Z, 48.22
2023-05-05T03:38:31.482Z, 48.21
2023-05-05T03:39:31.468Z, 48.26
2023-05-05T03:40:43.101Z, 48.56
2023-05-05T03:41:31.480Z, 49.19
2023-05-05T03:42:31.544Z, 50.17
2023-05-05T03:43:31.525Z, 51.02
2023-05-05T03:44:31.531Z, 51.63
2023-05-05T03:45:31.514Z, 51.99
2023-05-05T03:46:31.520Z, 52.30
2023-05-05T03:47:31.590Z, 52.67
2023-05-05T03:48:31.587Z, 53.11
2023-05-05T03:49:31.551Z, 53.47
2023-05-05T03:50:31.648Z, 53.89
2023-05-05T03:51:31.609Z, 54.12
2023-05-05T03:52:31.648Z, 54.33
2023-05-05T03:53:31.620Z, 54.52
2023-05-05T03:54:31.665Z, 54.74
2023-05-05T03:55:31.666Z, 54.87
2023-05-05T03:56:31.672Z, 54.91
2023-05-05T03:57:31.658Z, 54.94
2023-05-05T03:58:31.664Z, 55.01
2023-05-05T03:59:31.741Z, 55.07
2023-05-05T04:00:31.732Z, 55.14
2023-05-05T04:01:31.728Z, 55.11
2023-05-05T04:02:31.841Z, 55.48
2023-05-05T04:03:31.786Z, 56.27
2023-05-05T04:04:31.815Z, 56.38
2023-05-05T04:05:31.779Z, 56.22
2023-05-05T04:06:31.865Z, 55.84
2023-05-05T04:07:31.821Z, 55.41
2023-05-05T04:08:31.878Z, 55.16
2023-05-05T04:09:31.869Z, 54.96
2023-05-05T04:10:31.890Z, 54.75
2023-05-05T04:11:31.885Z, 54.55
2023-05-05T04:12:31.944Z, 54.40
2023-05-05T04:13:31.895Z, 54.28
2023-05-05T04:14:31.910Z, 54.13
2023-05-05T04:15:31.904Z, 53.98
2023-05-05T04:16:32.056Z, 53.87
2023-05-05T04:17:31.952Z, 53.82
2023-05-05T04:18:31.921Z, 53.74
2023-05-05T04:19:31.996Z, 53.58
2023-05-05T04:20:31.984Z, 53.59
2023-05-05T04:21:31.983Z, 53.54
2023-05-05T04:22:32.024Z, 53.44
2023-05-05T04:23:32.020Z, 53.39
2023-05-05T04:24:32.014Z, 53.38
2023-05-05T04:25:32.072Z, 53.28
2023-05-05T04:26:32.048Z, 53.32
2023-05-05T04:27:32.119Z, 53.27
2023-05-05T04:28:32.101Z, 53.24
2023-05-05T04:29:32.122Z, 53.22
2023-05-05T04:30:32.117Z, 53.16
2023-05-05T04:31:32.210Z, 53.08
2023-05-05T04:32:32.249Z, 53.02
2023-05-05T04:33:32.167Z, 53.06
2023-05-05T04:34:32.209Z, 53.07
2023-05-05T04:35:32.181Z, 52.98
2023-05-05T04:36:32.189Z, 52.93
2023-05-05T04:37:32.180Z, 52.88
2023-05-05T04:38:32.240Z, 52.82
2023-05-05T04:39:32.283Z, 52.72
2023-05-05T04:40:32.285Z, 52.76
2023-05-05T04:41:32.253Z, 52.78
2023-05-05T04:42:32.243Z, 52.72
2023-05-05T04:43:32.351Z, 52.62
2023-05-05T04:44:32.273Z, 52.61
2023-05-05T04:45:32.291Z, 52.56
2023-05-05T04:46:32.295Z, 52.45
2023-05-05T04:47:32.334Z, 52.47
2023-05-05T04:48:32.307Z, 52.42
2023-05-05T04:49:32.350Z, 52.41
2023-05-05T04:50:32.396Z, 52.44
2023-05-05T04:51:32.362Z, 52.41
2023-05-05T04:52:32.421Z, 52.28
2023-05-05T04:53:32.417Z, 52.24
2023-05-05T04:54:32.409Z, 52.27
2023-05-05T04:55:32.489Z, 52.21
2023-05-05T04:56:32.516Z, 52.21
2023-05-05T04:57:32.468Z, 52.20
2023-05-05T04:58:32.469Z, 52.19
2023-05-05T04:59:32.464Z, 52.13
2023-05-05T05:00:32.497Z, 52.12
2023-05-05T05:01:32.506Z, 52.08
2023-05-05T05:02:32.660Z, 52.05
2023-05-05T05:03:32.668Z, 52.04
2023-05-05T05:04:32.581Z, 51.98
2023-05-05T05:05:32.565Z, 51.88
2023-05-05T05:06:32.556Z, 51.76
2023-05-05T05:07:32.561Z, 51.80
2023-05-05T05:08:32.587Z, 51.80
2023-05-05T05:09:32.586Z, 51.71
2023-05-05T05:10:32.630Z, 51.74
2023-05-05T05:11:32.675Z, 51.65
2023-05-05T05:12:32.678Z, 51.62
2023-05-05T05:13:32.682Z, 51.61
2023-05-05T05:14:32.673Z, 51.62
2023-05-05T05:15:32.751Z, 51.63
2023-05-05T05:16:32.724Z, 51.50
2023-05-05T05:17:32.798Z, 51.76
2023-05-05T05:18:32.753Z, 52.99
2023-05-05T05:19:32.752Z, 53.34
2023-05-05T05:20:32.737Z, 53.13
2023-05-05T05:21:32.746Z, 52.79
2023-05-05T05:22:32.758Z, 52.55
2023-05-05T05:23:32.761Z, 52.33
2023-05-05T05:24:32.845Z, 52.17
2023-05-05T05:25:32.836Z, 51.97
2023-05-05T05:26:32.813Z, 51.81
2023-05-05T05:27:32.827Z, 51.74
2023-05-05T05:28:32.833Z, 51.68
2023-05-05T05:29:33.003Z, 51.55
2023-05-05T05:30:32.877Z, 51.46
2023-05-05T05:31:32.918Z, 51.37
2023-05-05T05:32:32.921Z, 51.29
2023-05-05T05:33:32.891Z, 51.30
2023-05-05T05:34:32.958Z, 51.27
2023-05-05T05:35:32.944Z, 51.13
2023-05-05T05:36:32.961Z, 51.00
2023-05-05T05:37:33.090Z, 50.97
2023-05-05T05:38:32.967Z, 50.99
2023-05-05T05:39:33.075Z, 50.97
2023-05-05T05:40:33.085Z, 50.91
2023-05-05T05:41:33.128Z, 50.89
2023-05-05T05:42:33.079Z, 50.77
2023-05-05T05:43:33.107Z, 50.75
2023-05-05T05:44:33.095Z, 50.76
2023-05-05T05:45:33.088Z, 50.65
2023-05-05T05:46:33.249Z, 50.64
2023-05-05T05:47:33.128Z, 50.56
2023-05-05T05:48:33.110Z, 50.50
2023-05-05T05:49:33.064Z, 50.51
2023-05-05T05:50:33.212Z, 50.44
2023-05-05T05:51:33.214Z, 50.35
2023-05-05T05:52:33.238Z, 50.36
2023-05-05T05:53:33.180Z, 50.33
2023-05-05T05:54:33.188Z, 50.38
2023-05-05T05:55:33.246Z, 50.34
2023-05-05T05:56:33.220Z, 50.27
2023-05-05T05:57:33.173Z, 50.27
2023-05-05T05:58:33.237Z, 50.25
2023-05-05T05:59:33.219Z, 50.12
2023-05-05T06:00:33.259Z, 50.13
2023-05-05T06:01:33.285Z, 50.11
2023-05-05T06:02:33.395Z, 50.07
2023-05-05T06:03:33.346Z, 50.06
2023-05-05T06:04:33.374Z, 50.02
2023-05-05T06:05:33.261Z, 49.92
2023-05-05T06:06:33.362Z, 49.98
2023-05-05T06:07:33.394Z, 49.89
2023-05-05T06:08:33.390Z, 49.92
2023-05-05T06:09:33.362Z, 49.89
2023-05-05T06:10:33.858Z, 49.80
2023-05-05T06:11:33.379Z, 49.83
2023-05-05T06:12:33.448Z, 49.81
2023-05-05T06:13:33.426Z, 49.83
2023-05-05T06:14:33.469Z, 49.73
2023-05-05T06:15:33.446Z, 49.68
2023-05-05T06:16:33.516Z, 49.68
2023-05-05T06:17:33.448Z, 49.65
2023-05-05T06:18:33.473Z, 49.58
2023-05-05T06:19:33.456Z, 49.55
2023-05-05T06:20:33.468Z, 49.53
2023-05-05T06:21:33.510Z, 49.43
2023-05-05T06:22:33.482Z, 49.40
2023-05-05T06:23:33.564Z, 49.43
2023-05-05T06:24:33.544Z, 49.39
2023-05-05T06:25:33.599Z, 49.35
2023-05-05T06:26:33.540Z, 49.32
2023-05-05T06:27:33.545Z, 49.21
2023-05-05T06:28:33.626Z, 49.15
2023-05-05T06:29:33.612Z, 49.19
2023-05-05T06:30:33.617Z, 49.13
2023-05-05T06:31:33.714Z, 49.07
2023-05-05T06:32:33.674Z, 49.07
2023-05-05T06:33:33.720Z, 49.05
2023-05-05T06:34:33.699Z, 48.99
2023-05-05T06:35:33.735Z, 48.98
2023-05-05T06:36:33.761Z, 49.04
2023-05-05T06:37:33.742Z, 48.99
2023-05-05T06:38:33.741Z, 48.94
2023-05-05T06:39:33.701Z, 48.94
2023-05-05T06:40:33.965Z, 48.92
2023-05-05T06:41:33.852Z, 48.83
2023-05-05T06:42:33.979Z, 48.67
2023-05-05T06:43:33.969Z, 48.68
2023-05-05T06:44:33.982Z, 48.62
2023-05-05T06:45:33.972Z, 48.59
2023-05-05T06:46:34.008Z, 48.62
2023-05-05T06:47:33.980Z, 48.56
2023-05-05T06:48:33.978Z, 48.61
2023-05-05T06:49:33.973Z, 48.62
2023-05-05T06:50:33.975Z, 48.53
2023-05-05T06:51:33.972Z, 48.47
2023-05-05T06:52:33.970Z, 48.45
2023-05-05T06:53:33.977Z, 48.42
2023-05-05T06:54:33.974Z, 48.41
2023-05-05T06:55:34.021Z, 48.35
2023-05-05T06:56:34.008Z, 48.33
2023-05-05T06:57:34.116Z, 48.36
2023-05-05T06:58:34.115Z, 48.30
2023-05-05T06:59:34.130Z, 48.29
2023-05-05T07:00:34.162Z, 48.29
2023-05-05T07:01:34.114Z, 48.30
2023-05-05T07:02:34.160Z, 48.25
2023-05-05T07:03:34.238Z, 48.18
2023-05-05T07:04:34.119Z, 48.15
2023-05-05T07:05:34.125Z, 48.11
2023-05-05T07:06:34.258Z, 48.15
2023-05-05T07:07:34.263Z, 48.10
2023-05-05T07:08:34.267Z, 48.07
2023-05-05T07:09:34.262Z, 48.07
2023-05-05T07:10:34.269Z, 48.07
2023-05-05T07:11:34.275Z, 47.90
2023-05-05T07:12:34.326Z, 47.82
2023-05-05T07:13:34.267Z, 47.79
2023-05-05T07:14:34.270Z, 47.89
2023-05-05T07:15:34.268Z, 47.80
2023-05-05T07:16:34.297Z, 47.71
2023-05-05T07:17:34.309Z, 47.73
2023-05-05T07:18:34.271Z, 47.71
2023-05-05T07:19:34.415Z, 47.66
2023-05-05T07:20:34.409Z, 47.55
2023-05-05T07:21:34.409Z, 47.56
2023-05-05T07:22:34.414Z, 47.58
2023-05-05T07:23:34.409Z, 47.50
2023-05-05T07:24:34.416Z, 47.42
2023-05-05T07:25:34.444Z, 47.34
2023-05-05T07:26:34.411Z, 47.36
2023-05-05T07:27:34.411Z, 47.42
2023-05-05T07:28:34.416Z, 47.48
2023-05-05T07:29:34.417Z, 47.46
2023-05-05T07:30:34.418Z, 47.38
2023-05-05T07:31:34.580Z, 47.32
2023-05-05T07:32:34.604Z, 47.39
2023-05-05T07:33:34.563Z, 47.33
2023-05-05T07:34:34.748Z, 47.27
2023-05-05T07:35:34.563Z, 47.19
2023-05-05T07:36:34.570Z, 47.10
2023-05-05T07:37:34.563Z, 47.14
2023-05-05T07:38:34.594Z, 47.10
2023-05-05T07:39:34.566Z, 47.08
2023-05-05T07:40:34.578Z, 47.02
2023-05-05T07:41:34.562Z, 47.06
2023-05-05T07:42:34.561Z, 47.03
2023-05-05T07:43:34.578Z, 47.03
2023-05-05T07:44:34.605Z, 46.98
2023-05-05T07:45:34.701Z, 46.92
2023-05-05T07:46:34.797Z, 46.90
2023-05-05T07:47:34.751Z, 46.88
2023-05-05T07:48:34.706Z, 46.84
2023-05-05T07:49:34.707Z, 46.72
2023-05-05T07:50:34.747Z, 46.68
2023-05-05T07:51:35.048Z, 46.72
2023-05-05T07:52:46.912Z, 46.66
2023-05-05T07:53:34.838Z, 46.65
2023-05-05T07:54:34.857Z, 46.62
2023-05-05T07:55:34.841Z, 46.62
2023-05-05T07:56:34.867Z, 46.61
2023-05-05T07:57:34.845Z, 46.67
2023-05-05T07:58:34.846Z, 46.55
2023-05-05T07:59:34.845Z, 46.54
2023-05-05T08:00:34.842Z, 46.54
2023-05-05T08:01:34.856Z, 46.56
2023-05-05T08:02:34.980Z, 46.53
2023-05-05T08:03:35.068Z, 46.49
2023-05-05T08:04:34.881Z, 46.44
2023-05-05T08:05:34.858Z, 46.38
2023-05-05T08:06:34.853Z, 46.36
2023-05-05T08:07:34.849Z, 46.27
2023-05-05T08:08:34.873Z, 46.26
2023-05-05T08:09:34.887Z, 46.28
2023-05-05T08:10:34.969Z, 46.24
2023-05-05T08:11:34.961Z, 46.21
2023-05-05T08:12:34.965Z, 46.21
2023-05-05T08:13:34.943Z, 46.16
2023-05-05T08:14:34.949Z, 46.08
2023-05-05T08:15:34.980Z, 46.11
2023-05-05T08:16:35.034Z, 46.01
2023-05-05T08:17:34.955Z, 46.06
2023-05-05T08:18:34.943Z, 46.02
2023-05-05T08:19:34.952Z, 46.00
2023-05-05T08:20:34.977Z, 45.97
2023-05-05T08:21:34.981Z, 45.82
2023-05-05T08:22:35.118Z, 45.83
2023-05-05T08:23:35.122Z, 45.81
2023-05-05T08:24:35.294Z, 45.79
2023-05-05T08:25:35.145Z, 45.81
2023-05-05T08:26:35.290Z, 45.72
2023-05-05T08:27:35.314Z, 45.73
2023-05-05T08:28:35.302Z, 45.70
2023-05-05T08:29:35.298Z, 45.69
2023-05-05T08:30:35.338Z, 45.60
2023-05-05T08:31:35.363Z, 45.57
2023-05-05T08:32:35.318Z, 45.56
2023-05-05T08:33:35.307Z, 45.56
2023-05-05T08:34:35.296Z, 45.54
2023-05-05T08:35:35.318Z, 45.53
2023-05-05T08:36:35.301Z, 45.53
2023-05-05T08:37:35.335Z, 45.55
2023-05-05T08:38:35.305Z, 45.54
2023-05-05T08:39:35.314Z, 45.46
2023-05-05T08:40:35.312Z, 45.44
2023-05-05T08:41:35.307Z, 45.43
2023-05-05T08:42:38.439Z, 45.47
2023-05-05T08:43:35.477Z, 45.45
2023-05-05T08:44:35.478Z, 45.37
2023-05-05T08:45:35.478Z, 45.30
2023-05-05T08:46:35.512Z, 45.26
2023-05-05T08:47:35.522Z, 45.26
2023-05-05T08:48:35.480Z, 45.23
2023-05-05T08:49:35.473Z, 45.22
2023-05-05T08:50:35.482Z, 45.24
2023-05-05T08:51:35.482Z, 45.14
2023-05-05T08:52:35.495Z, 45.10
2023-05-05T08:53:35.508Z, 45.07
2023-05-05T08:54:35.479Z, 45.07
2023-05-05T08:55:35.659Z, 45.04
2023-05-05T08:56:35.485Z, 45.04
2023-05-05T08:57:35.515Z, 45.01
2023-05-05T08:58:35.509Z, 44.94
2023-05-05T08:59:35.508Z, 44.93
2023-05-05T09:00:35.654Z, 44.87
2023-05-05T09:01:35.712Z, 44.82
2023-05-05T09:02:35.761Z, 44.80
2023-05-05T09:03:35.697Z, 44.86
2023-05-05T09:04:35.655Z, 44.83
2023-05-05T09:05:35.827Z, 44.81
2023-05-05T09:06:35.836Z, 44.76
2023-05-05T09:07:35.661Z, 44.73
2023-05-05T09:08:35.828Z, 44.74
2023-05-05T09:09:35.658Z, 44.64
2023-05-05T09:10:35.661Z, 44.56
2023-05-05T09:11:35.663Z, 44.61
2023-05-05T09:12:35.718Z, 44.64
2023-05-05T09:13:35.827Z, 44.65
2023-05-05T09:14:35.686Z, 44.57
2023-05-05T09:15:35.841Z, 44.47
2023-05-05T09:16:35.922Z, 44.54
2023-05-05T09:17:35.864Z, 44.46
2023-05-05T09:18:35.840Z, 44.53
2023-05-05T09:19:35.841Z, 44.53
2023-05-05T09:20:35.874Z, 44.55
2023-05-05T09:21:35.846Z, 44.43
2023-05-05T09:22:35.844Z, 44.38
2023-05-05T09:23:35.874Z, 44.35
2023-05-05T09:24:35.842Z, 44.37
2023-05-05T09:25:35.865Z, 44.39
2023-05-05T09:26:35.845Z, 44.36
2023-05-05T09:27:36.017Z, 44.32
2023-05-05T09:28:36.042Z, 44.33
2023-05-05T09:29:36.038Z, 44.22
2023-05-05T09:30:36.068Z, 44.19
2023-05-05T09:31:36.023Z, 44.18
2023-05-05T09:32:36.028Z, 44.18
2023-05-05T09:33:36.037Z, 44.16
2023-05-05T09:34:36.074Z, 44.12
2023-05-05T09:35:36.032Z, 44.04
2023-05-05T09:36:36.025Z, 44.06
2023-05-05T09:37:36.047Z, 44.03
2023-05-05T09:38:36.029Z, 43.98
2023-05-05T09:39:36.199Z, 43.94
2023-05-05T09:40:36.200Z, 43.96
2023-05-05T09:41:36.075Z, 43.94
2023-05-05T09:42:36.206Z, 43.95
2023-05-05T09:43:36.208Z, 43.98
2023-05-05T09:44:36.208Z, 43.94
2023-05-05T09:45:36.224Z, 43.92
2023-05-05T09:46:36.231Z, 43.95
2023-05-05T09:47:36.264Z, 43.98
2023-05-05T09:48:36.205Z, 43.93
2023-05-05T09:49:36.205Z, 43.90
2023-05-05T09:50:36.216Z, 43.82
2023-05-05T09:51:36.237Z, 43.83
2023-05-05T09:52:36.212Z, 43.78
2023-05-05T09:53:36.242Z, 43.71
2023-05-05T09:54:36.221Z, 43.68
2023-05-05T09:55:36.388Z, 43.68
2023-05-05T09:56:36.245Z, 43.69
2023-05-05T09:57:36.228Z, 43.64
2023-05-05T09:58:36.267Z, 43.67
2023-05-05T09:59:36.379Z, 43.60
2023-05-05T10:00:36.396Z, 43.54
2023-05-05T10:01:36.424Z, 43.59
2023-05-05T10:02:36.418Z, 43.55
2023-05-05T10:03:36.392Z, 43.49
2023-05-05T10:04:36.416Z, 43.49
2023-05-05T10:05:36.392Z, 43.50
2023-05-05T10:06:36.396Z, 43.44
2023-05-05T10:07:36.402Z, 43.39
2023-05-05T10:08:36.406Z, 43.39
2023-05-05T10:09:36.385Z, 43.37
2023-05-05T10:10:36.387Z, 43.36
2023-05-05T10:11:36.395Z, 43.34
2023-05-05T10:12:36.577Z, 43.30
2023-05-05T10:13:36.563Z, 43.30
2023-05-05T10:14:36.581Z, 43.33
2023-05-05T10:15:36.571Z, 43.25
2023-05-05T10:16:36.589Z, 43.22
2023-05-05T10:17:36.586Z, 43.21
2023-05-05T10:18:36.624Z, 43.19
2023-05-05T10:19:36.588Z, 43.18
2023-05-05T10:20:36.600Z, 43.13
2023-05-05T10:21:36.573Z, 43.10
2023-05-05T10:22:36.576Z, 43.07
2023-05-05T10:23:36.562Z, 43.04
2023-05-05T10:24:36.565Z, 43.06
2023-05-05T10:25:36.568Z, 43.07
2023-05-05T10:26:36.570Z, 43.05
2023-05-05T10:27:36.574Z, 43.00
2023-05-05T10:28:36.575Z, 43.01
2023-05-05T10:29:36.573Z, 42.99
2023-05-05T10:30:36.748Z, 43.00
2023-05-05T10:31:36.787Z, 42.95
2023-05-05T10:32:54.363Z, 42.96
2023-05-05T10:33:36.840Z, 42.99
2023-05-05T10:34:36.815Z, 42.93
2023-05-05T10:35:36.760Z, 42.85
2023-05-05T10:36:36.756Z, 42.88
2023-05-05T10:37:36.756Z, 42.90
2023-05-05T10:38:36.755Z, 42.91
2023-05-05T10:39:36.763Z, 42.84
2023-05-05T10:40:36.759Z, 42.83
2023-05-05T10:41:36.927Z, 42.81
2023-05-05T10:42:36.935Z, 42.80
2023-05-05T10:43:36.787Z, 42.74
2023-05-05T10:44:36.791Z, 42.78
2023-05-05T10:45:36.880Z, 42.75
2023-05-05T10:46:37.034Z, 42.71
2023-05-05T10:47:36.963Z, 42.72
2023-05-05T10:48:36.932Z, 42.74
2023-05-05T10:49:36.931Z, 42.71
2023-05-05T10:50:36.954Z, 42.64
2023-05-05T10:51:40.537Z, 42.62
2023-05-05T10:52:36.955Z, 42.54
2023-05-05T10:53:36.943Z, 42.43
2023-05-05T10:54:38.314Z, 42.37
2023-05-05T10:55:36.956Z, 42.37
2023-05-05T10:56:36.958Z, 42.35
2023-05-05T10:57:36.949Z, 42.32
2023-05-05T10:58:51.095Z, 42.29
2023-05-05T10:59:37.123Z, 42.26
2023-05-05T11:00:36.974Z, 42.33
2023-05-05T11:01:37.200Z, 42.30
2023-05-05T11:02:37.160Z, 42.24
2023-05-05T11:03:37.169Z, 42.19
2023-05-05T11:04:37.117Z, 42.18
2023-05-05T11:05:37.113Z, 42.15
2023-05-05T11:06:37.117Z, 42.10
2023-05-05T11:07:37.115Z, 42.09
2023-05-05T11:08:37.129Z, 42.09
2023-05-05T11:09:37.111Z, 42.05
2023-05-05T11:10:37.148Z, 42.04
2023-05-05T11:11:37.119Z, 42.00
2023-05-05T11:12:38.717Z, 42.00
2023-05-05T11:13:37.118Z, 42.01
2023-05-05T11:14:37.128Z, 41.94
2023-05-05T11:15:37.140Z, 41.92
2023-05-05T11:16:37.178Z, 41.90
2023-05-05T11:17:37.320Z, 41.87
2023-05-05T11:18:37.288Z, 41.88
2023-05-05T11:19:37.284Z, 41.89
2023-05-05T11:20:37.322Z, 41.89
2023-05-05T11:21:37.296Z, 41.84
2023-05-05T11:22:37.309Z, 41.79
2023-05-05T11:23:37.297Z, 41.80
2023-05-05T11:24:37.295Z, 41.80
2023-05-05T11:25:37.922Z, 41.77
2023-05-05T11:26:37.289Z, 41.79
2023-05-05T11:27:37.290Z, 41.70
2023-05-05T11:28:37.304Z, 41.66
2023-05-05T11:29:37.300Z, 41.69
2023-05-05T11:30:37.309Z, 41.70
2023-05-05T11:31:37.421Z, 41.62
2023-05-05T11:32:37.505Z, 41.62
2023-05-05T11:33:37.463Z, 41.61
2023-05-05T11:34:37.494Z, 41.48
2023-05-05T11:35:37.473Z, 41.48
2023-05-05T11:36:37.468Z, 41.52
2023-05-05T11:37:37.492Z, 41.54
2023-05-05T11:38:37.499Z, 41.46
2023-05-05T11:39:37.479Z, 41.50
2023-05-05T11:40:37.487Z, 41.47
2023-05-05T11:41:37.476Z, 41.45
2023-05-05T11:42:37.496Z, 41.47
2023-05-05T11:43:37.478Z, 41.44
2023-05-05T11:44:37.668Z, 41.46
2023-05-05T11:45:37.511Z, 41.43
2023-05-05T11:46:37.767Z, 41.38
2023-05-05T11:47:37.521Z, 41.36
2023-05-05T11:48:37.655Z, 41.32
2023-05-05T11:49:37.659Z, 41.30
2023-05-05T11:50:37.653Z, 41.31
2023-05-05T11:51:37.661Z, 41.27
2023-05-05T11:52:37.652Z, 41.26
2023-05-05T11:53:37.662Z, 41.24
2023-05-05T11:54:37.665Z, 41.26
2023-05-05T11:55:37.659Z, 41.27
2023-05-05T11:56:37.664Z, 41.21
2023-05-05T11:57:37.658Z, 41.21
2023-05-05T11:58:37.676Z, 41.14
2023-05-05T11:59:37.727Z, 41.14
2023-05-05T12:00:37.695Z, 41.08
2023-05-05T12:01:37.670Z, 41.06
2023-05-05T12:02:37.772Z, 41.04
2023-05-05T12:03:37.873Z, 41.06
2023-05-05T12:04:37.804Z, 41.05
2023-05-05T12:05:37.713Z, 40.99
2023-05-05T12:06:37.715Z, 40.96
2023-05-05T12:07:37.719Z, 40.96
2023-05-05T12:08:37.730Z, 41.00
2023-05-05T12:09:37.723Z, 41.01
2023-05-05T12:10:37.721Z, 40.94
2023-05-05T12:11:37.718Z, 40.93
2023-05-05T12:12:37.835Z, 40.90
2023-05-05T12:13:37.741Z, 40.93
2023-05-05T12:14:37.811Z, 40.94
2023-05-05T12:15:37.791Z, 40.92
2023-05-05T12:16:37.900Z, 40.92
2023-05-05T12:17:37.860Z, 40.91
2023-05-05T12:18:37.812Z, 40.82
2023-05-05T12:19:37.804Z, 40.80
2023-05-05T12:20:37.814Z, 40.81
2023-05-05T12:21:37.805Z, 40.82
2023-05-05T12:22:37.825Z, 40.83
2023-05-05T12:23:37.892Z, 40.83
2023-05-05T12:24:37.865Z, 40.79
2023-05-05T12:25:37.941Z, 40.73
2023-05-05T12:26:37.921Z, 40.72
2023-05-05T12:27:37.914Z, 40.72
2023-05-05T12:28:37.909Z, 40.69